sensor_id;sensor_type;location;lat;lon;timestamp;P1;durP1;ratioP1;P2;durP2;ratioP2
19547;SDS011;9919;58.014;11.826;2023-04-24T00:00:01;3.30;;;2.78;;
19547;SDS011;9919;58.014;11.826;2023-04-24T00:02:05;2.30;;;2.10;;
19547;SDS011;9919;58.014;11.826;2023-04-24T00:04:10;2.78;;;2.22;;
19547;SDS011;9919;58.014;11.826;2023-04-24T00:06:14;2.58;;;2.38;;
19547;SDS011;9919;58.014;11.826;2023-04-24T00:08:17;2.70;;;2.50;;
19547;SDS011;9919;58.014;11.826;2023-04-24T00:10:18;2.50;;;1.98;;
19547;SDS011;9919;58.014;11.826;2023-04-24T00:12:19;2.42;;;2.20;;
19547;SDS011;9919;58.014;11.826;2023-04-24T00:14:21;2.70;;;2.28;;
19547;SDS011;9919;58.014;11.826;2023-04-24T00:16:23;2.28;;;2.17;;
19547;SDS011;9919;58.014;11.826;2023-04-24T00:18:25;2.60;;;2.10;;
19547;SDS011;9919;58.014;11.826;2023-04-24T00:20:27;2.60;;;2.40;;
19547;SDS011;9919;58.014;11.826;2023-04-24T00:22:39;2.30;;;2.10;;
19547;SDS011;9919;58.014;11.826;2023-04-24T00:24:41;3.17;;;2.20;;
19547;SDS011;9919;58.014;11.826;2023-04-24T00:26:42;2.10;;;2.00;;
19547;SDS011;9919;58.014;11.826;2023-04-24T00:28:43;4.40;;;2.42;;
19547;SDS011;9919;58.014;11.826;2023-04-24T00:30:45;3.35;;;2.38;;
19547;SDS011;9919;58.014;11.826;2023-04-24T00:32:46;3.28;;;2.30;;
19547;SDS011;9919;58.014;11.826;2023-04-24T00:34:48;2.47;;;2.28;;
19547;SDS011;9919;58.014;11.826;2023-04-24T00:36:50;3.55;;;2.40;;
19547;SDS011;9919;58.014;11.826;2023-04-24T00:38:52;2.40;;;2.17;;
19547;SDS011;9919;58.014;11.826;2023-04-24T00:40:54;3.25;;;2.60;;
19547;SDS011;9919;58.014;11.826;2023-04-24T00:42:55;2.38;;;2.20;;
19547;SDS011;9919;58.014;11.826;2023-04-24T00:44:56;2.65;;;2.30;;
19547;SDS011;9919;58.014;11.826;2023-04-24T00:46:59;2.63;;;2.05;;
19547;SDS011;9919;58.014;11.826;2023-04-24T00:49:01;1.90;;;1.80;;
19547;SDS011;9919;58.014;11.826;2023-04-24T00:51:04;1.80;;;1.65;;
19547;SDS011;9919;58.014;11.826;2023-04-24T00:53:05;3.53;;;2.20;;
19547;SDS011;9919;58.014;11.826;2023-04-24T00:55:06;2.88;;;2.60;;
19547;SDS011;9919;58.014;11.826;2023-04-24T00:57:08;2.38;;;2.15;;
19547;SDS011;9919;58.014;11.826;2023-04-24T00:59:13;2.83;;;2.08;;
19547;SDS011;9919;58.014;11.826;2023-04-24T01:01:20;2.53;;;2.17;;
19547;SDS011;9919;58.014;11.826;2023-04-24T01:03:22;2.00;;;1.80;;
19547;SDS011;9919;58.014;11.826;2023-04-24T01:05:26;2.65;;;2.45;;
19547;SDS011;9919;58.014;11.826;2023-04-24T01:07:27;1.77;;;1.67;;
19547;SDS011;9919;58.014;11.826;2023-04-24T01:09:29;2.53;;;2.33;;
19547;SDS011;9919;58.014;11.826;2023-04-24T01:11:31;2.22;;;2.03;;
19547;SDS011;9919;58.014;11.826;2023-04-24T01:13:32;2.33;;;2.13;;
19547;SDS011;9919;58.014;11.826;2023-04-24T01:15:34;2.15;;;1.98;;
19547;SDS011;9919;58.014;11.826;2023-04-24T01:17:36;2.40;;;2.20;;
19547;SDS011;9919;58.014;11.826;2023-04-24T01:19:38;2.22;;;2.03;;
19547;SDS011;9919;58.014;11.826;2023-04-24T01:21:40;2.67;;;2.30;;
19547;SDS011;9919;58.014;11.826;2023-04-24T01:23:43;2.17;;;1.98;;
19547;SDS011;9919;58.014;11.826;2023-04-24T01:25:45;2.75;;;2.45;;
19547;SDS011;9919;58.014;11.826;2023-04-24T01:27:46;2.63;;;2.08;;
19547;SDS011;9919;58.014;11.826;2023-04-24T01:29:48;2.25;;;1.90;;
19547;SDS011;9919;58.014;11.826;2023-04-24T01:31:51;2.40;;;2.20;;
19547;SDS011;9919;58.014;11.826;2023-04-24T01:33:53;2.80;;;2.33;;
19547;SDS011;9919;58.014;11.826;2023-04-24T01:35:56;2.70;;;2.17;;
19547;SDS011;9919;58.014;11.826;2023-04-24T01:37:58;2.50;;;2.30;;
19547;SDS011;9919;58.014;11.826;2023-04-24T01:39:59;2.45;;;2.30;;
19547;SDS011;9919;58.014;11.826;2023-04-24T01:42:01;2.80;;;2.58;;
19547;SDS011;9919;58.014;11.826;2023-04-24T01:44:02;2.22;;;2.08;;
19547;SDS011;9919;58.014;11.826;2023-04-24T01:46:04;2.53;;;2.15;;
19547;SDS011;9919;58.014;11.826;2023-04-24T01:48:06;2.22;;;2.08;;
19547;SDS011;9919;58.014;11.826;2023-04-24T01:50:07;2.10;;;2.00;;
19547;SDS011;9919;58.014;11.826;2023-04-24T01:52:09;3.13;;;2.45;;
19547;SDS011;9919;58.014;11.826;2023-04-24T01:54:12;2.55;;;2.35;;
19547;SDS011;9919;58.014;11.826;2023-04-24T01:56:14;2.97;;;2.10;;
19547;SDS011;9919;58.014;11.826;2023-04-24T01:58:16;2.88;;;2.53;;
19547;SDS011;9919;58.014;11.826;2023-04-24T02:00:17;2.22;;;2.03;;
19547;SDS011;9919;58.014;11.826;2023-04-24T02:02:19;2.25;;;2.08;;
19547;SDS011;9919;58.014;11.826;2023-04-24T02:04:21;3.47;;;2.50;;
19547;SDS011;9919;58.014;11.826;2023-04-24T02:06:22;2.60;;;2.20;;
19547;SDS011;9919;58.014;11.826;2023-04-24T02:08:24;2.13;;;1.92;;
19547;SDS011;9919;58.014;11.826;2023-04-24T02:10:25;2.38;;;2.15;;
19547;SDS011;9919;58.014;11.826;2023-04-24T02:12:27;3.47;;;2.15;;
19547;SDS011;9919;58.014;11.826;2023-04-24T02:14:28;2.45;;;2.25;;
19547;SDS011;9919;58.014;11.826;2023-04-24T02:16:30;2.95;;;2.20;;
19547;SDS011;9919;58.014;11.826;2023-04-24T02:18:32;2.13;;;1.85;;
19547;SDS011;9919;58.014;11.826;2023-04-24T02:20:33;2.13;;;1.92;;
19547;SDS011;9919;58.014;11.826;2023-04-24T02:22:35;2.42;;;2.03;;
19547;SDS011;9919;58.014;11.826;2023-04-24T02:24:37;3.60;;;2.53;;
19547;SDS011;9919;58.014;11.826;2023-04-24T02:26:39;2.22;;;1.88;;
19547;SDS011;9919;58.014;11.826;2023-04-24T02:28:40;2.22;;;2.03;;
19547;SDS011;9919;58.014;11.826;2023-04-24T02:30:41;2.00;;;1.90;;
19547;SDS011;9919;58.014;11.826;2023-04-24T02:32:44;2.22;;;2.00;;
19547;SDS011;9919;58.014;11.826;2023-04-24T02:34:46;2.45;;;2.03;;
19547;SDS011;9919;58.014;11.826;2023-04-24T02:36:47;2.08;;;1.90;;
19547;SDS011;9919;58.014;11.826;2023-04-24T02:38:49;2.50;;;2.15;;
19547;SDS011;9919;58.014;11.826;2023-04-24T02:40:50;2.47;;;2.22;;
19547;SDS011;9919;58.014;11.826;2023-04-24T02:42:52;3.05;;;2.38;;
19547;SDS011;9919;58.014;11.826;2023-04-24T02:44:53;2.33;;;2.03;;
19547;SDS011;9919;58.014;11.826;2023-04-24T02:46:54;2.30;;;2.10;;
19547;SDS011;9919;58.014;11.826;2023-04-24T02:48:56;3.85;;;2.40;;
19547;SDS011;9919;58.014;11.826;2023-04-24T02:50:58;2.33;;;2.13;;
19547;SDS011;9919;58.014;11.826;2023-04-24T02:52:59;2.08;;;1.88;;
19547;SDS011;9919;58.014;11.826;2023-04-24T02:55:01;2.20;;;2.05;;
19547;SDS011;9919;58.014;11.826;2023-04-24T02:57:03;2.80;;;2.55;;
19547;SDS011;9919;58.014;11.826;2023-04-24T02:59:05;3.63;;;2.13;;
19547;SDS011;9919;58.014;11.826;2023-04-24T03:01:06;2.97;;;1.80;;
19547;SDS011;9919;58.014;11.826;2023-04-24T03:03:09;2.33;;;1.95;;
19547;SDS011;9919;58.014;11.826;2023-04-24T03:05:11;2.17;;;1.88;;
19547;SDS011;9919;58.014;11.826;2023-04-24T03:07:12;2.38;;;2.17;;
19547;SDS011;9919;58.014;11.826;2023-04-24T03:09:14;2.10;;;1.90;;
19547;SDS011;9919;58.014;11.826;2023-04-24T03:11:15;3.05;;;2.40;;
19547;SDS011;9919;58.014;11.826;2023-04-24T03:13:17;2.38;;;2.17;;
19547;SDS011;9919;58.014;11.826;2023-04-24T03:15:18;1.73;;;1.63;;
19547;SDS011;9919;58.014;11.826;2023-04-24T03:17:20;2.28;;;2.17;;
19547;SDS011;9919;58.014;11.826;2023-04-24T03:19:22;2.35;;;2.15;;
19547;SDS011;9919;58.014;11.826;2023-04-24T03:21:24;2.22;;;1.88;;
19547;SDS011;9919;58.014;11.826;2023-04-24T03:23:26;2.35;;;2.15;;
19547;SDS011;9919;58.014;11.826;2023-04-24T03:25:27;1.83;;;1.73;;
19547;SDS011;9919;58.014;11.826;2023-04-24T03:27:29;3.63;;;2.28;;
19547;SDS011;9919;58.014;11.826;2023-04-24T03:29:30;2.63;;;2.10;;
19547;SDS011;9919;58.014;11.826;2023-04-24T03:31:32;4.03;;;2.25;;
19547;SDS011;9919;58.014;11.826;2023-04-24T03:33:33;3.33;;;2.38;;
19547;SDS011;9919;58.014;11.826;2023-04-24T03:35:36;2.40;;;2.22;;
19547;SDS011;9919;58.014;11.826;2023-04-24T03:37:37;2.13;;;1.92;;
19547;SDS011;9919;58.014;11.826;2023-04-24T03:39:38;2.20;;;1.95;;
19547;SDS011;9919;58.014;11.826;2023-04-24T03:41:40;2.58;;;2.03;;
19547;SDS011;9919;58.014;11.826;2023-04-24T03:43:41;2.45;;;1.83;;
19547;SDS011;9919;58.014;11.826;2023-04-24T03:45:42;2.22;;;2.03;;
19547;SDS011;9919;58.014;11.826;2023-04-24T03:47:44;2.58;;;1.80;;
19547;SDS011;9919;58.014;11.826;2023-04-24T03:49:45;3.30;;;2.42;;
19547;SDS011;9919;58.014;11.826;2023-04-24T03:51:47;2.50;;;2.30;;
19547;SDS011;9919;58.014;11.826;2023-04-24T03:53:49;1.90;;;1.80;;
19547;SDS011;9919;58.014;11.826;2023-04-24T03:55:50;2.20;;;2.03;;
19547;SDS011;9919;58.014;11.826;2023-04-24T03:57:52;2.10;;;1.92;;
19547;SDS011;9919;58.014;11.826;2023-04-24T03:59:54;1.98;;;1.80;;
19547;SDS011;9919;58.014;11.826;2023-04-24T04:01:55;2.30;;;2.10;;
19547;SDS011;9919;58.014;11.826;2023-04-24T04:03:57;2.22;;;1.83;;
19547;SDS011;9919;58.014;11.826;2023-04-24T04:05:58;2.65;;;2.08;;
19547;SDS011;9919;58.014;11.826;2023-04-24T04:07:59;2.30;;;1.98;;
19547;SDS011;9919;58.014;11.826;2023-04-24T04:10:01;2.05;;;1.85;;
19547;SDS011;9919;58.014;11.826;2023-04-24T04:12:03;2.13;;;1.75;;
19547;SDS011;9919;58.014;11.826;2023-04-24T04:14:04;2.17;;;1.70;;
19547;SDS011;9919;58.014;11.826;2023-04-24T04:16:06;2.30;;;2.10;;
19547;SDS011;9919;58.014;11.826;2023-04-24T04:18:08;2.65;;;2.38;;
19547;SDS011;9919;58.014;11.826;2023-04-24T04:20:10;2.08;;;1.88;;
19547;SDS011;9919;58.014;11.826;2023-04-24T04:22:13;2.10;;;1.70;;
19547;SDS011;9919;58.014;11.826;2023-04-24T04:24:14;2.13;;;1.90;;
19547;SDS011;9919;58.014;11.826;2023-04-24T04:26:17;2.28;;;1.80;;
19547;SDS011;9919;58.014;11.826;2023-04-24T04:28:19;2.28;;;2.08;;
19547;SDS011;9919;58.014;11.826;2023-04-24T04:30:21;1.88;;;1.67;;
19547;SDS011;9919;58.014;11.826;2023-04-24T04:32:23;2.22;;;1.83;;
19547;SDS011;9919;58.014;11.826;2023-04-24T04:34:24;2.00;;;1.90;;
19547;SDS011;9919;58.014;11.826;2023-04-24T04:36:26;2.45;;;2.17;;
19547;SDS011;9919;58.014;11.826;2023-04-24T04:38:29;2.08;;;1.90;;
19547;SDS011;9919;58.014;11.826;2023-04-24T04:40:30;2.35;;;1.60;;
19547;SDS011;9919;58.014;11.826;2023-04-24T04:42:32;2.22;;;2.03;;
19547;SDS011;9919;58.014;11.826;2023-04-24T04:44:35;2.53;;;2.17;;
19547;SDS011;9919;58.014;11.826;2023-04-24T04:46:36;1.80;;;1.70;;
19547;SDS011;9919;58.014;11.826;2023-04-24T04:48:38;2.30;;;2.10;;
19547;SDS011;9919;58.014;11.826;2023-04-24T04:50:40;2.55;;;2.35;;
19547;SDS011;9919;58.014;11.826;2023-04-24T04:52:41;1.83;;;1.73;;
19547;SDS011;9919;58.014;11.826;2023-04-24T04:54:43;6.43;;;2.58;;
19547;SDS011;9919;58.014;11.826;2023-04-24T04:56:44;2.45;;;1.95;;
19547;SDS011;9919;58.014;11.826;2023-04-24T04:58:46;2.10;;;1.90;;
19547;SDS011;9919;58.014;11.826;2023-04-24T05:00:48;1.80;;;1.70;;
19547;SDS011;9919;58.014;11.826;2023-04-24T05:02:53;2.05;;;1.75;;
19547;SDS011;9919;58.014;11.826;2023-04-24T05:04:55;1.90;;;1.80;;
19547;SDS011;9919;58.014;11.826;2023-04-24T05:06:57;1.75;;;1.65;;
19547;SDS011;9919;58.014;11.826;2023-04-24T05:08:58;2.10;;;1.90;;
19547;SDS011;9919;58.014;11.826;2023-04-24T05:10:59;2.00;;;1.90;;
19547;SDS011;9919;58.014;11.826;2023-04-24T05:13:01;2.40;;;2.20;;
19547;SDS011;9919;58.014;11.826;2023-04-24T05:15:03;2.03;;;1.90;;
19547;SDS011;9919;58.014;11.826;2023-04-24T05:17:05;1.70;;;1.60;;
19547;SDS011;9919;58.014;11.826;2023-04-24T05:19:07;1.70;;;1.60;;
19547;SDS011;9919;58.014;11.826;2023-04-24T05:21:08;1.90;;;1.80;;
19547;SDS011;9919;58.014;11.826;2023-04-24T05:23:09;1.88;;;1.77;;
19547;SDS011;9919;58.014;11.826;2023-04-24T05:25:11;1.65;;;1.55;;
19547;SDS011;9919;58.014;11.826;2023-04-24T05:27:13;2.58;;;1.80;;
19547;SDS011;9919;58.014;11.826;2023-04-24T05:29:15;2.25;;;2.08;;
19547;SDS011;9919;58.014;11.826;2023-04-24T05:31:19;1.90;;;1.80;;
19547;SDS011;9919;58.014;11.826;2023-04-24T05:33:21;1.83;;;1.73;;
19547;SDS011;9919;58.014;11.826;2023-04-24T05:35:22;2.75;;;2.03;;
19547;SDS011;9919;58.014;11.826;2023-04-24T05:37:23;1.42;;;1.33;;
19547;SDS011;9919;58.014;11.826;2023-04-24T05:39:25;2.25;;;1.70;;
19547;SDS011;9919;58.014;11.826;2023-04-24T05:41:27;1.40;;;1.30;;
19547;SDS011;9919;58.014;11.826;2023-04-24T05:43:28;1.92;;;1.83;;
19547;SDS011;9919;58.014;11.826;2023-04-24T05:45:30;2.30;;;2.10;;
19547;SDS011;9919;58.014;11.826;2023-04-24T05:47:31;1.90;;;1.75;;
19547;SDS011;9919;58.014;11.826;2023-04-24T05:49:33;2.40;;;1.95;;
19547;SDS011;9919;58.014;11.826;2023-04-24T05:51:34;2.15;;;2.00;;
19547;SDS011;9919;58.014;11.826;2023-04-24T05:53:35;1.60;;;1.50;;
19547;SDS011;9919;58.014;11.826;2023-04-24T05:55:37;1.92;;;1.60;;
19547;SDS011;9919;58.014;11.826;2023-04-24T05:57:38;1.83;;;1.70;;
19547;SDS011;9919;58.014;11.826;2023-04-24T05:59:40;1.67;;;1.58;;
19547;SDS011;9919;58.014;11.826;2023-04-24T06:01:42;1.92;;;1.83;;
19547;SDS011;9919;58.014;11.826;2023-04-24T06:03:43;4.30;;;2.03;;
19547;SDS011;9919;58.014;11.826;2023-04-24T06:05:45;1.83;;;1.73;;
19547;SDS011;9919;58.014;11.826;2023-04-24T06:07:47;1.70;;;1.60;;
19547;SDS011;9919;58.014;11.826;2023-04-24T06:09:48;1.60;;;1.50;;
19547;SDS011;9919;58.014;11.826;2023-04-24T06:11:50;1.63;;;1.30;;
19547;SDS011;9919;58.014;11.826;2023-04-24T06:13:53;1.90;;;1.80;;
19547;SDS011;9919;58.014;11.826;2023-04-24T06:15:54;1.40;;;1.30;;
19547;SDS011;9919;58.014;11.826;2023-04-24T06:17:56;1.67;;;1.58;;
19547;SDS011;9919;58.014;11.826;2023-04-24T06:19:57;1.58;;;1.48;;
19547;SDS011;9919;58.014;11.826;2023-04-24T06:21:59;1.60;;;1.50;;
19547;SDS011;9919;58.014;11.826;2023-04-24T06:24:00;1.67;;;1.50;;
19547;SDS011;9919;58.014;11.826;2023-04-24T06:26:02;2.10;;;1.90;;
19547;SDS011;9919;58.014;11.826;2023-04-24T06:28:03;1.73;;;1.63;;
19547;SDS011;9919;58.014;11.826;2023-04-24T06:30:05;2.45;;;2.25;;
19547;SDS011;9919;58.014;11.826;2023-04-24T06:32:07;1.85;;;1.70;;
19547;SDS011;9919;58.014;11.826;2023-04-24T06:34:08;1.42;;;1.33;;
19547;SDS011;9919;58.014;11.826;2023-04-24T06:36:09;2.83;;;1.95;;
19547;SDS011;9919;58.014;11.826;2023-04-24T06:38:11;2.30;;;1.70;;
19547;SDS011;9919;58.014;11.826;2023-04-24T06:40:14;1.80;;;1.70;;
19547;SDS011;9919;58.014;11.826;2023-04-24T06:42:15;2.33;;;1.95;;
19547;SDS011;9919;58.014;11.826;2023-04-24T06:44:18;1.85;;;1.75;;
19547;SDS011;9919;58.014;11.826;2023-04-24T06:46:20;1.50;;;1.40;;
19547;SDS011;9919;58.014;11.826;2023-04-24T06:48:26;1.92;;;1.83;;
19547;SDS011;9919;58.014;11.826;2023-04-24T06:50:27;1.58;;;1.48;;
19547;SDS011;9919;58.014;11.826;2023-04-24T06:52:28;1.65;;;1.55;;
19547;SDS011;9919;58.014;11.826;2023-04-24T06:54:33;1.63;;;1.52;;
19547;SDS011;9919;58.014;11.826;2023-04-24T06:56:34;1.88;;;1.52;;
19547;SDS011;9919;58.014;11.826;2023-04-24T06:58:36;1.50;;;1.40;;
19547;SDS011;9919;58.014;11.826;2023-04-24T07:00:38;1.65;;;1.55;;
19547;SDS011;9919;58.014;11.826;2023-04-24T07:02:40;1.60;;;1.50;;
19547;SDS011;9919;58.014;11.826;2023-04-24T07:04:41;1.70;;;1.50;;
19547;SDS011;9919;58.014;11.826;2023-04-24T07:06:44;1.60;;;1.50;;
19547;SDS011;9919;58.014;11.826;2023-04-24T07:08:46;1.92;;;1.70;;
19547;SDS011;9919;58.014;11.826;2023-04-24T07:10:48;1.35;;;1.35;;
19547;SDS011;9919;58.014;11.826;2023-04-24T07:12:50;1.50;;;1.40;;
19547;SDS011;9919;58.014;11.826;2023-04-24T07:14:52;1.58;;;1.48;;
19547;SDS011;9919;58.014;11.826;2023-04-24T07:16:54;1.55;;;1.17;;
19547;SDS011;9919;58.014;11.826;2023-04-24T07:18:57;1.77;;;1.67;;
19547;SDS011;9919;58.014;11.826;2023-04-24T07:20:59;1.50;;;1.40;;
19547;SDS011;9919;58.014;11.826;2023-04-24T07:23:01;1.85;;;1.45;;
19547;SDS011;9919;58.014;11.826;2023-04-24T07:25:02;1.38;;;1.23;;
19547;SDS011;9919;58.014;11.826;2023-04-24T07:27:05;1.60;;;1.50;;
19547;SDS011;9919;58.014;11.826;2023-04-24T07:29:06;1.70;;;1.60;;
19547;SDS011;9919;58.014;11.826;2023-04-24T07:31:08;1.65;;;1.55;;
19547;SDS011;9919;58.014;11.826;2023-04-24T07:33:11;1.52;;;1.42;;
19547;SDS011;9919;58.014;11.826;2023-04-24T07:35:13;1.67;;;1.58;;
19547;SDS011;9919;58.014;11.826;2023-04-24T07:37:14;2.03;;;1.52;;
19547;SDS011;9919;58.014;11.826;2023-04-24T07:39:16;1.40;;;1.30;;
19547;SDS011;9919;58.014;11.826;2023-04-24T07:41:17;1.48;;;1.33;;
19547;SDS011;9919;58.014;11.826;2023-04-24T07:43:19;1.70;;;1.60;;
19547;SDS011;9919;58.014;11.826;2023-04-24T07:45:21;1.60;;;1.50;;
19547;SDS011;9919;58.014;11.826;2023-04-24T07:47:23;1.40;;;1.30;;
19547;SDS011;9919;58.014;11.826;2023-04-24T07:49:25;1.60;;;1.50;;
19547;SDS011;9919;58.014;11.826;2023-04-24T07:51:27;1.70;;;1.60;;
19547;SDS011;9919;58.014;11.826;2023-04-24T07:53:30;2.58;;;1.38;;
19547;SDS011;9919;58.014;11.826;2023-04-24T07:55:31;1.70;;;1.60;;
19547;SDS011;9919;58.014;11.826;2023-04-24T07:57:33;2.05;;;1.60;;
19547;SDS011;9919;58.014;11.826;2023-04-24T07:59:34;1.45;;;1.35;;
19547;SDS011;9919;58.014;11.826;2023-04-24T08:01:36;1.48;;;1.38;;
19547;SDS011;9919;58.014;11.826;2023-04-24T08:03:38;1.58;;;1.48;;
19547;SDS011;9919;58.014;11.826;2023-04-24T08:05:40;1.60;;;1.50;;
19547;SDS011;9919;58.014;11.826;2023-04-24T08:07:42;1.40;;;1.30;;
19547;SDS011;9919;58.014;11.826;2023-04-24T08:09:46;1.60;;;1.50;;
19547;SDS011;9919;58.014;11.826;2023-04-24T08:11:47;1.55;;;1.45;;
19547;SDS011;9919;58.014;11.826;2023-04-24T08:13:49;1.60;;;1.50;;
19547;SDS011;9919;58.014;11.826;2023-04-24T08:15:50;3.20;;;1.55;;
19547;SDS011;9919;58.014;11.826;2023-04-24T08:17:51;1.65;;;1.55;;
19547;SDS011;9919;58.014;11.826;2023-04-24T08:19:53;1.50;;;1.40;;
19547;SDS011;9919;58.014;11.826;2023-04-24T08:22:01;1.40;;;1.30;;
19547;SDS011;9919;58.014;11.826;2023-04-24T08:24:04;1.48;;;1.38;;
19547;SDS011;9919;58.014;11.826;2023-04-24T08:26:08;1.63;;;1.52;;
19547;SDS011;9919;58.014;11.826;2023-04-24T08:28:11;1.65;;;1.45;;
19547;SDS011;9919;58.014;11.826;2023-04-24T08:30:12;1.70;;;1.60;;
19547;SDS011;9919;58.014;11.826;2023-04-24T08:32:14;1.48;;;1.35;;
19547;SDS011;9919;58.014;11.826;2023-04-24T08:34:15;0.98;;;0.98;;
19547;SDS011;9919;58.014;11.826;2023-04-24T08:36:16;1.33;;;1.23;;
19547;SDS011;9919;58.014;11.826;2023-04-24T08:38:18;1.70;;;1.60;;
19547;SDS011;9919;58.014;11.826;2023-04-24T08:40:26;1.40;;;1.30;;
19547;SDS011;9919;58.014;11.826;2023-04-24T08:42:30;1.35;;;1.25;;
19547;SDS011;9919;58.014;11.826;2023-04-24T08:44:33;1.20;;;1.20;;
19547;SDS011;9919;58.014;11.826;2023-04-24T08:46:35;1.50;;;1.40;;
19547;SDS011;9919;58.014;11.826;2023-04-24T08:48:37;2.03;;;1.85;;
19547;SDS011;9919;58.014;11.826;2023-04-24T08:50:40;1.50;;;1.40;;
19547;SDS011;9919;58.014;11.826;2023-04-24T08:52:42;1.13;;;1.13;;
19547;SDS011;9919;58.014;11.826;2023-04-24T08:54:44;1.60;;;1.50;;
19547;SDS011;9919;58.014;11.826;2023-04-24T08:56:47;1.50;;;1.40;;
19547;SDS011;9919;58.014;11.826;2023-04-24T08:58:50;1.70;;;1.60;;
19547;SDS011;9919;58.014;11.826;2023-04-24T09:00:55;1.25;;;1.23;;
19547;SDS011;9919;58.014;11.826;2023-04-24T09:02:59;2.38;;;1.80;;
19547;SDS011;9919;58.014;11.826;2023-04-24T09:05:01;2.05;;;1.88;;
19547;SDS011;9919;58.014;11.826;2023-04-24T09:07:03;1.63;;;1.50;;
19547;SDS011;9919;58.014;11.826;2023-04-24T09:09:08;1.60;;;1.50;;
19547;SDS011;9919;58.014;11.826;2023-04-24T09:11:11;1.27;;;1.27;;
19547;SDS011;9919;58.014;11.826;2023-04-24T09:13:13;2.80;;;1.65;;
19547;SDS011;9919;58.014;11.826;2023-04-24T09:15:14;1.92;;;1.65;;
19547;SDS011;9919;58.014;11.826;2023-04-24T09:17:16;1.60;;;1.50;;
19547;SDS011;9919;58.014;11.826;2023-04-24T09:19:18;2.13;;;1.67;;
19547;SDS011;9919;58.014;11.826;2023-04-24T09:21:22;1.42;;;1.33;;
19547;SDS011;9919;58.014;11.826;2023-04-24T09:23:25;1.15;;;1.15;;
19547;SDS011;9919;58.014;11.826;2023-04-24T09:25:31;1.40;;;1.38;;
19547;SDS011;9919;58.014;11.826;2023-04-24T09:27:34;1.30;;;1.30;;
19547;SDS011;9919;58.014;11.826;2023-04-24T09:29:35;1.58;;;1.48;;
19547;SDS011;9919;58.014;11.826;2023-04-24T09:31:37;1.52;;;1.42;;
19547;SDS011;9919;58.014;11.826;2023-04-24T09:33:39;4.40;;;1.45;;
19547;SDS011;9919;58.014;11.826;2023-04-24T09:35:50;1.60;;;1.50;;
19547;SDS011;9919;58.014;11.826;2023-04-24T09:37:51;1.75;;;1.65;;
19547;SDS011;9919;58.014;11.826;2023-04-24T09:42:16;1.30;;;1.20;;
19547;SDS011;9919;58.014;11.826;2023-04-24T09:44:18;1.30;;;1.20;;
19547;SDS011;9919;58.014;11.826;2023-04-24T09:46:30;1.52;;;1.42;;
19547;SDS011;9919;58.014;11.826;2023-04-24T09:48:34;1.40;;;1.30;;
19547;SDS011;9919;58.014;11.826;2023-04-24T09:50:36;1.40;;;1.30;;
19547;SDS011;9919;58.014;11.826;2023-04-24T09:52:41;1.15;;;1.15;;
19547;SDS011;9919;58.014;11.826;2023-04-24T09:54:46;1.55;;;1.45;;
19547;SDS011;9919;58.014;11.826;2023-04-24T09:56:54;1.58;;;1.38;;
19547;SDS011;9919;58.014;11.826;2023-04-24T09:58:58;1.52;;;1.42;;
19547;SDS011;9919;58.014;11.826;2023-04-24T10:01:06;1.52;;;1.42;;
19547;SDS011;9919;58.014;11.826;2023-04-24T10:03:08;1.50;;;1.40;;
19547;SDS011;9919;58.014;11.826;2023-04-24T10:05:11;1.45;;;1.35;;
19547;SDS011;9919;58.014;11.826;2023-04-24T10:07:12;1.50;;;1.40;;
19547;SDS011;9919;58.014;11.826;2023-04-24T10:09:19;1.10;;;1.10;;
19547;SDS011;9919;58.014;11.826;2023-04-24T10:11:21;1.08;;;1.08;;
19547;SDS011;9919;58.014;11.826;2023-04-24T10:13:27;1.08;;;1.08;;
19547;SDS011;9919;58.014;11.826;2023-04-24T10:15:29;1.40;;;1.30;;
19547;SDS011;9919;58.014;11.826;2023-04-24T10:17:31;1.08;;;1.08;;
19547;SDS011;9919;58.014;11.826;2023-04-24T10:19:32;1.52;;;1.42;;
19547;SDS011;9919;58.014;11.826;2023-04-24T10:21:35;1.50;;;1.40;;
19547;SDS011;9919;58.014;11.826;2023-04-24T10:23:59;1.48;;;1.38;;
19547;SDS011;9919;58.014;11.826;2023-04-24T10:26:03;1.77;;;1.23;;
19547;SDS011;9919;58.014;11.826;2023-04-24T10:28:05;0.95;;;0.95;;
19547;SDS011;9919;58.014;11.826;2023-04-24T10:30:07;1.35;;;1.25;;
19547;SDS011;9919;58.014;11.826;2023-04-24T10:32:09;1.00;;;1.00;;
19547;SDS011;9919;58.014;11.826;2023-04-24T10:36:50;1.33;;;1.23;;
19547;SDS011;9919;58.014;11.826;2023-04-24T10:38:52;1.15;;;1.05;;
19547;SDS011;9919;58.014;11.826;2023-04-24T10:41:06;1.30;;;1.20;;
19547;SDS011;9919;58.014;11.826;2023-04-24T10:43:09;1.45;;;1.35;;
19547;SDS011;9919;58.014;11.826;2023-04-24T10:45:17;1.70;;;1.15;;
19547;SDS011;9919;58.014;11.826;2023-04-24T10:47:22;1.20;;;1.20;;
19547;SDS011;9919;58.014;11.826;2023-04-24T10:49:29;1.20;;;1.20;;
19547;SDS011;9919;58.014;11.826;2023-04-24T10:51:47;2.67;;;1.60;;
19547;SDS011;9919;58.014;11.826;2023-04-24T10:53:50;1.27;;;1.17;;
19547;SDS011;9919;58.014;11.826;2023-04-24T10:56:00;1.40;;;1.30;;
19547;SDS011;9919;58.014;11.826;2023-04-24T10:58:03;1.65;;;1.40;;
19547;SDS011;9919;58.014;11.826;2023-04-24T11:02:18;1.23;;;1.10;;
19547;SDS011;9919;58.014;11.826;2023-04-24T11:04:37;1.20;;;1.10;;
19547;SDS011;9919;58.014;11.826;2023-04-24T11:06:38;1.33;;;1.23;;
19547;SDS011;9919;58.014;11.826;2023-04-24T11:08:46;1.27;;;1.17;;
19547;SDS011;9919;58.014;11.826;2023-04-24T11:10:57;1.27;;;1.20;;
19547;SDS011;9919;58.014;11.826;2023-04-24T11:13:01;1.83;;;1.58;;
19547;SDS011;9919;58.014;11.826;2023-04-24T11:15:03;1.40;;;1.30;;
19547;SDS011;9919;58.014;11.826;2023-04-24T11:17:05;1.23;;;1.20;;
19547;SDS011;9919;58.014;11.826;2023-04-24T11:19:08;1.63;;;1.52;;
19547;SDS011;9919;58.014;11.826;2023-04-24T11:21:12;1.52;;;1.42;;
19547;SDS011;9919;58.014;11.826;2023-04-24T11:23:16;1.42;;;1.27;;
19547;SDS011;9919;58.014;11.826;2023-04-24T11:25:18;1.50;;;1.40;;
19547;SDS011;9919;58.014;11.826;2023-04-24T11:27:22;1.10;;;1.10;;
19547;SDS011;9919;58.014;11.826;2023-04-24T11:31:44;1.02;;;1.02;;
19547;SDS011;9919;58.014;11.826;2023-04-24T11:33:51;2.38;;;1.38;;
19547;SDS011;9919;58.014;11.826;2023-04-24T11:35:53;1.70;;;1.60;;
19547;SDS011;9919;58.014;11.826;2023-04-24T11:37:55;1.48;;;1.40;;
19547;SDS011;9919;58.014;11.826;2023-04-24T11:39:57;1.20;;;1.10;;
19547;SDS011;9919;58.014;11.826;2023-04-24T11:42:02;1.38;;;1.27;;
19547;SDS011;9919;58.014;11.826;2023-04-24T11:44:06;1.42;;;1.33;;
19547;SDS011;9919;58.014;11.826;2023-04-24T11:46:09;1.40;;;1.30;;
19547;SDS011;9919;58.014;11.826;2023-04-24T11:48:18;1.27;;;1.27;;
19547;SDS011;9919;58.014;11.826;2023-04-24T11:50:23;0.95;;;0.95;;
19547;SDS011;9919;58.014;11.826;2023-04-24T11:52:27;1.60;;;1.50;;
19547;SDS011;9919;58.014;11.826;2023-04-24T11:54:29;1.67;;;1.45;;
19547;SDS011;9919;58.014;11.826;2023-04-24T11:56:30;1.98;;;1.50;;
19547;SDS011;9919;58.014;11.826;2023-04-24T11:58:35;1.00;;;1.00;;
19547;SDS011;9919;58.014;11.826;2023-04-24T12:00:38;1.58;;;1.27;;
19547;SDS011;9919;58.014;11.826;2023-04-24T12:02:39;1.15;;;1.13;;
19547;SDS011;9919;58.014;11.826;2023-04-24T12:04:41;1.42;;;1.10;;
19547;SDS011;9919;58.014;11.826;2023-04-24T12:07:02;1.25;;;1.17;;
19547;SDS011;9919;58.014;11.826;2023-04-24T12:09:05;1.38;;;1.10;;
19547;SDS011;9919;58.014;11.826;2023-04-24T12:11:07;1.15;;;1.00;;
19547;SDS011;9919;58.014;11.826;2023-04-24T12:13:08;1.35;;;1.35;;
19547;SDS011;9919;58.014;11.826;2023-04-24T12:15:11;1.15;;;1.15;;
19547;SDS011;9919;58.014;11.826;2023-04-24T12:17:12;1.77;;;1.67;;
19547;SDS011;9919;58.014;11.826;2023-04-24T12:19:18;1.25;;;1.15;;
19547;SDS011;9919;58.014;11.826;2023-04-24T12:21:22;1.23;;;1.13;;
19547;SDS011;9919;58.014;11.826;2023-04-24T12:23:33;1.00;;;1.00;;
19547;SDS011;9919;58.014;11.826;2023-04-24T12:25:35;1.00;;;1.00;;
19547;SDS011;9919;58.014;11.826;2023-04-24T12:27:38;1.92;;;1.70;;